sensor_id;sensor_type;location;lat;lon;timestamp;P1;durP1;ratioP1;P2;durP2;ratioP2
81351;SDS011;70809;52.184;13.422;2023-08-06T00:00:53;10.27;;;8.55;;
81351;SDS011;70809;52.184;13.422;2023-08-06T00:01:55;11.75;;;9.07;;
81351;SDS011;70809;52.184;13.422;2023-08-06T00:02:56;10.77;;;8.10;;
81351;SDS011;70809;52.184;13.422;2023-08-06T00:03:58;12.15;;;7.97;;
81351;SDS011;70809;52.184;13.422;2023-08-06T00:05:00;9.45;;;8.45;;
81351;SDS011;70809;52.184;13.422;2023-08-06T00:06:02;10.52;;;8.43;;
81351;SDS011;70809;52.184;13.422;2023-08-06T00:07:04;9.88;;;7.97;;
81351;SDS011;70809;52.184;13.422;2023-08-06T00:08:06;9.25;;;7.85;;
81351;SDS011;70809;52.184;13.422;2023-08-06T00:09:07;11.18;;;8.70;;
81351;SDS011;70809;52.184;13.422;2023-08-06T00:10:09;10.27;;;8.43;;
81351;SDS011;70809;52.184;13.422;2023-08-06T00:11:11;10.68;;;7.72;;
81351;SDS011;70809;52.184;13.422;2023-08-06T00:12:12;11.45;;;9.10;;
81351;SDS011;70809;52.184;13.422;2023-08-06T00:13:15;11.23;;;8.55;;
81351;SDS011;70809;52.184;13.422;2023-08-06T00:14:17;11.27;;;8.32;;
81351;SDS011;70809;52.184;13.422;2023-08-06T00:15:19;11.68;;;9.20;;
81351;SDS011;70809;52.184;13.422;2023-08-06T00:16:20;10.85;;;8.77;;
81351;SDS011;70809;52.184;13.422;2023-08-06T00:17:22;11.95;;;8.68;;
81351;SDS011;70809;52.184;13.422;2023-08-06T00:18:24;9.75;;;7.95;;
81351;SDS011;70809;52.184;13.422;2023-08-06T00:19:26;11.30;;;9.02;;
81351;SDS011;70809;52.184;13.422;2023-08-06T00:20:27;10.32;;;8.55;;
81351;SDS011;70809;52.184;13.422;2023-08-06T00:21:31;12.82;;;9.13;;
81351;SDS011;70809;52.184;13.422;2023-08-06T00:22:32;13.32;;;9.20;;
81351;SDS011;70809;52.184;13.422;2023-08-06T00:23:35;10.73;;;8.75;;
81351;SDS011;70809;52.184;13.422;2023-08-06T00:24:37;11.70;;;8.75;;
81351;SDS011;70809;52.184;13.422;2023-08-06T00:25:38;10.75;;;8.18;;
81351;SDS011;70809;52.184;13.422;2023-08-06T00:26:40;10.50;;;8.73;;
81351;SDS011;70809;52.184;13.422;2023-08-06T00:27:42;10.18;;;9.13;;
81351;SDS011;70809;52.184;13.422;2023-08-06T00:28:51;11.65;;;9.32;;
81351;SDS011;70809;52.184;13.422;2023-08-06T00:29:53;11.93;;;9.93;;
81351;SDS011;70809;52.184;13.422;2023-08-06T00:30:54;13.55;;;9.82;;
81351;SDS011;70809;52.184;13.422;2023-08-06T00:31:57;11.25;;;9.40;;
81351;SDS011;70809;52.184;13.422;2023-08-06T00:32:59;12.90;;;9.98;;
81351;SDS011;70809;52.184;13.422;2023-08-06T00:34:00;12.25;;;9.95;;
81351;SDS011;70809;52.184;13.422;2023-08-06T00:35:02;14.68;;;10.52;;
81351;SDS011;70809;52.184;13.422;2023-08-06T00:36:04;14.30;;;10.32;;
81351;SDS011;70809;52.184;13.422;2023-08-06T00:37:06;12.23;;;9.60;;
81351;SDS011;70809;52.184;13.422;2023-08-06T00:38:07;16.73;;;11.20;;
81351;SDS011;70809;52.184;13.422;2023-08-06T00:39:10;12.68;;;10.50;;
81351;SDS011;70809;52.184;13.422;2023-08-06T00:40:12;14.30;;;10.50;;
81351;SDS011;70809;52.184;13.422;2023-08-06T00:41:14;13.57;;;10.35;;
81351;SDS011;70809;52.184;13.422;2023-08-06T00:42:16;14.95;;;9.70;;
81351;SDS011;70809;52.184;13.422;2023-08-06T00:43:17;11.75;;;9.07;;
81351;SDS011;70809;52.184;13.422;2023-08-06T00:44:20;12.55;;;10.68;;
81351;SDS011;70809;52.184;13.422;2023-08-06T00:45:22;14.48;;;11.07;;
81351;SDS011;70809;52.184;13.422;2023-08-06T00:46:25;14.85;;;11.10;;
81351;SDS011;70809;52.184;13.422;2023-08-06T00:47:28;12.25;;;10.02;;
81351;SDS011;70809;52.184;13.422;2023-08-06T00:48:30;12.15;;;10.13;;
81351;SDS011;70809;52.184;13.422;2023-08-06T00:49:32;16.85;;;11.00;;
81351;SDS011;70809;52.184;13.422;2023-08-06T00:50:34;12.88;;;9.60;;
81351;SDS011;70809;52.184;13.422;2023-08-06T00:51:36;15.50;;;10.48;;
81351;SDS011;70809;52.184;13.422;2023-08-06T00:52:38;15.93;;;11.00;;
81351;SDS011;70809;52.184;13.422;2023-08-06T00:53:41;13.55;;;10.10;;
81351;SDS011;70809;52.184;13.422;2023-08-06T00:54:44;14.05;;;10.80;;
81351;SDS011;70809;52.184;13.422;2023-08-06T00:55:45;13.27;;;10.02;;
81351;SDS011;70809;52.184;13.422;2023-08-06T00:56:47;13.70;;;9.93;;
81351;SDS011;70809;52.184;13.422;2023-08-06T00:57:49;13.70;;;10.25;;
81351;SDS011;70809;52.184;13.422;2023-08-06T00:58:51;12.68;;;9.65;;
81351;SDS011;70809;52.184;13.422;2023-08-06T00:59:55;14.93;;;10.02;;
81351;SDS011;70809;52.184;13.422;2023-08-06T01:00:56;13.57;;;11.10;;
81351;SDS011;70809;52.184;13.422;2023-08-06T01:01:58;12.77;;;10.40;;
81351;SDS011;70809;52.184;13.422;2023-08-06T01:03:00;14.43;;;10.15;;
81351;SDS011;70809;52.184;13.422;2023-08-06T01:04:02;12.50;;;10.27;;
81351;SDS011;70809;52.184;13.422;2023-08-06T01:05:04;14.68;;;10.60;;
81351;SDS011;70809;52.184;13.422;2023-08-06T01:06:06;14.35;;;10.68;;
81351;SDS011;70809;52.184;13.422;2023-08-06T01:07:10;16.08;;;11.00;;
81351;SDS011;70809;52.184;13.422;2023-08-06T01:08:25;14.52;;;11.68;;
81351;SDS011;70809;52.184;13.422;2023-08-06T01:09:35;13.80;;;10.80;;
81351;SDS011;70809;52.184;13.422;2023-08-06T01:10:47;13.55;;;9.93;;
81351;SDS011;70809;52.184;13.422;2023-08-06T01:12:01;9.48;;;8.38;;
81351;SDS011;70809;52.184;13.422;2023-08-06T01:13:11;12.23;;;10.07;;
81351;SDS011;70809;52.184;13.422;2023-08-06T01:14:21;12.88;;;9.35;;
81351;SDS011;70809;52.184;13.422;2023-08-06T01:15:29;13.80;;;8.77;;
81351;SDS011;70809;52.184;13.422;2023-08-06T01:16:34;12.40;;;9.13;;
81351;SDS011;70809;52.184;13.422;2023-08-06T01:17:36;14.30;;;9.90;;
81351;SDS011;70809;52.184;13.422;2023-08-06T01:18:39;12.73;;;9.63;;
81351;SDS011;70809;52.184;13.422;2023-08-06T01:19:40;12.32;;;8.95;;
81351;SDS011;70809;52.184;13.422;2023-08-06T01:20:43;13.88;;;9.57;;
81351;SDS011;70809;52.184;13.422;2023-08-06T01:21:45;15.50;;;9.88;;
81351;SDS011;70809;52.184;13.422;2023-08-06T01:22:46;11.10;;;9.05;;
81351;SDS011;70809;52.184;13.422;2023-08-06T01:23:48;12.88;;;10.48;;
81351;SDS011;70809;52.184;13.422;2023-08-06T01:24:50;16.50;;;9.95;;
81351;SDS011;70809;52.184;13.422;2023-08-06T01:25:55;13.40;;;9.38;;
81351;SDS011;70809;52.184;13.422;2023-08-06T01:27:03;11.93;;;9.10;;
81351;SDS011;70809;52.184;13.422;2023-08-06T01:28:09;12.73;;;9.40;;
81351;SDS011;70809;52.184;13.422;2023-08-06T01:29:25;12.27;;;9.13;;
81351;SDS011;70809;52.184;13.422;2023-08-06T01:30:32;14.30;;;10.63;;
81351;SDS011;70809;52.184;13.422;2023-08-06T01:31:40;13.05;;;9.65;;
81351;SDS011;70809;52.184;13.422;2023-08-06T01:32:45;12.70;;;9.57;;
81351;SDS011;70809;52.184;13.422;2023-08-06T01:33:50;11.88;;;8.75;;
81351;SDS011;70809;52.184;13.422;2023-08-06T01:34:55;14.02;;;10.30;;
81351;SDS011;70809;52.184;13.422;2023-08-06T01:36:02;14.10;;;10.55;;
81351;SDS011;70809;52.184;13.422;2023-08-06T01:37:05;13.52;;;10.05;;
81351;SDS011;70809;52.184;13.422;2023-08-06T01:38:08;12.43;;;9.75;;
81351;SDS011;70809;52.184;13.422;2023-08-06T01:39:10;13.65;;;10.00;;
81351;SDS011;70809;52.184;13.422;2023-08-06T01:40:12;12.40;;;9.38;;
81351;SDS011;70809;52.184;13.422;2023-08-06T01:41:15;15.05;;;9.73;;
81351;SDS011;70809;52.184;13.422;2023-08-06T01:42:16;12.93;;;9.00;;
81351;SDS011;70809;52.184;13.422;2023-08-06T01:43:18;13.77;;;10.25;;
81351;SDS011;70809;52.184;13.422;2023-08-06T01:44:20;12.80;;;9.75;;
81351;SDS011;70809;52.184;13.422;2023-08-06T01:45:22;12.45;;;9.88;;
81351;SDS011;70809;52.184;13.422;2023-08-06T01:46:24;14.60;;;9.98;;
81351;SDS011;70809;52.184;13.422;2023-08-06T01:47:25;14.50;;;10.25;;
81351;SDS011;70809;52.184;13.422;2023-08-06T01:48:27;15.10;;;8.77;;
81351;SDS011;70809;52.184;13.422;2023-08-06T01:49:28;14.57;;;9.35;;
81351;SDS011;70809;52.184;13.422;2023-08-06T01:50:30;12.80;;;9.32;;
81351;SDS011;70809;52.184;13.422;2023-08-06T01:51:33;12.43;;;9.60;;
81351;SDS011;70809;52.184;13.422;2023-08-06T01:52:35;11.98;;;8.68;;
81351;SDS011;70809;52.184;13.422;2023-08-06T01:53:37;14.05;;;9.38;;
81351;SDS011;70809;52.184;13.422;2023-08-06T01:54:38;13.32;;;9.63;;
81351;SDS011;70809;52.184;13.422;2023-08-06T01:55:40;13.70;;;9.93;;
81351;SDS011;70809;52.184;13.422;2023-08-06T01:56:41;12.38;;;9.27;;
81351;SDS011;70809;52.184;13.422;2023-08-06T01:57:43;16.90;;;9.98;;
81351;SDS011;70809;52.184;13.422;2023-08-06T01:58:45;12.45;;;8.95;;
81351;SDS011;70809;52.184;13.422;2023-08-06T01:59:46;10.27;;;8.82;;
81351;SDS011;70809;52.184;13.422;2023-08-06T02:00:48;12.75;;;8.95;;
81351;SDS011;70809;52.184;13.422;2023-08-06T02:01:50;11.57;;;8.07;;
81351;SDS011;70809;52.184;13.422;2023-08-06T02:02:52;10.45;;;8.50;;
81351;SDS011;70809;52.184;13.422;2023-08-06T02:03:54;14.65;;;9.43;;
81351;SDS011;70809;52.184;13.422;2023-08-06T02:04:56;12.80;;;8.20;;
81351;SDS011;70809;52.184;13.422;2023-08-06T02:05:57;10.48;;;7.72;;
81351;SDS011;70809;52.184;13.422;2023-08-06T02:07:00;10.43;;;8.27;;
81351;SDS011;70809;52.184;13.422;2023-08-06T02:08:02;13.52;;;9.10;;
81351;SDS011;70809;52.184;13.422;2023-08-06T02:09:04;11.93;;;8.77;;
81351;SDS011;70809;52.184;13.422;2023-08-06T02:10:06;11.25;;;8.40;;
81351;SDS011;70809;52.184;13.422;2023-08-06T02:11:08;11.82;;;8.23;;
81351;SDS011;70809;52.184;13.422;2023-08-06T02:12:10;9.38;;;7.68;;
81351;SDS011;70809;52.184;13.422;2023-08-06T02:13:12;12.13;;;8.13;;
81351;SDS011;70809;52.184;13.422;2023-08-06T02:14:13;11.32;;;8.02;;
81351;SDS011;70809;52.184;13.422;2023-08-06T02:15:15;11.57;;;8.40;;
81351;SDS011;70809;52.184;13.422;2023-08-06T02:16:17;12.30;;;9.18;;
81351;SDS011;70809;52.184;13.422;2023-08-06T02:17:19;15.93;;;8.63;;
81351;SDS011;70809;52.184;13.422;2023-08-06T02:18:21;12.43;;;9.65;;
81351;SDS011;70809;52.184;13.422;2023-08-06T02:19:23;11.38;;;8.68;;
81351;SDS011;70809;52.184;13.422;2023-08-06T02:20:25;10.95;;;7.80;;
81351;SDS011;70809;52.184;13.422;2023-08-06T02:21:26;11.48;;;7.60;;
81351;SDS011;70809;52.184;13.422;2023-08-06T02:22:29;12.02;;;7.80;;
81351;SDS011;70809;52.184;13.422;2023-08-06T02:23:31;10.70;;;7.95;;
81351;SDS011;70809;52.184;13.422;2023-08-06T02:24:33;9.18;;;7.90;;
81351;SDS011;70809;52.184;13.422;2023-08-06T02:25:34;11.55;;;8.95;;
81351;SDS011;70809;52.184;13.422;2023-08-06T02:26:36;10.70;;;8.15;;
81351;SDS011;70809;52.184;13.422;2023-08-06T02:27:38;10.15;;;7.68;;
81351;SDS011;70809;52.184;13.422;2023-08-06T02:28:40;10.45;;;7.75;;
81351;SDS011;70809;52.184;13.422;2023-08-06T02:29:42;9.55;;;7.03;;
81351;SDS011;70809;52.184;13.422;2023-08-06T02:31:51;10.68;;;7.60;;
81351;SDS011;70809;52.184;13.422;2023-08-06T02:32:53;11.30;;;7.40;;
81351;SDS011;70809;52.184;13.422;2023-08-06T02:33:55;12.63;;;7.38;;
81351;SDS011;70809;52.184;13.422;2023-08-06T02:34:57;12.35;;;7.85;;
81351;SDS011;70809;52.184;13.422;2023-08-06T02:35:59;10.02;;;8.02;;
81351;SDS011;70809;52.184;13.422;2023-08-06T02:37:01;12.35;;;9.15;;
81351;SDS011;70809;52.184;13.422;2023-08-06T02:38:04;10.00;;;8.15;;
81351;SDS011;70809;52.184;13.422;2023-08-06T02:39:05;10.00;;;7.93;;
81351;SDS011;70809;52.184;13.422;2023-08-06T02:40:07;11.93;;;7.70;;
81351;SDS011;70809;52.184;13.422;2023-08-06T02:41:10;11.43;;;7.88;;
81351;SDS011;70809;52.184;13.422;2023-08-06T02:42:11;11.95;;;8.40;;
81351;SDS011;70809;52.184;13.422;2023-08-06T02:43:13;9.90;;;7.72;;
81351;SDS011;70809;52.184;13.422;2023-08-06T02:44:15;11.80;;;7.80;;
81351;SDS011;70809;52.184;13.422;2023-08-06T02:45:17;11.18;;;8.57;;
81351;SDS011;70809;52.184;13.422;2023-08-06T02:46:19;10.73;;;8.02;;
81351;SDS011;70809;52.184;13.422;2023-08-06T02:47:21;10.65;;;8.20;;
81351;SDS011;70809;52.184;13.422;2023-08-06T02:48:24;11.43;;;7.80;;
81351;SDS011;70809;52.184;13.422;2023-08-06T02:49:25;12.25;;;8.27;;
81351;SDS011;70809;52.184;13.422;2023-08-06T02:50:27;11.68;;;8.80;;
81351;SDS011;70809;52.184;13.422;2023-08-06T02:51:29;9.70;;;7.90;;
81351;SDS011;70809;52.184;13.422;2023-08-06T02:52:31;11.18;;;8.15;;
81351;SDS011;70809;52.184;13.422;2023-08-06T02:53:34;10.63;;;7.45;;
81351;SDS011;70809;52.184;13.422;2023-08-06T02:54:40;10.02;;;7.55;;
81351;SDS011;70809;52.184;13.422;2023-08-06T02:55:45;15.07;;;7.57;;
81351;SDS011;70809;52.184;13.422;2023-08-06T02:56:47;8.45;;;7.35;;
81351;SDS011;70809;52.184;13.422;2023-08-06T02:57:56;10.57;;;7.70;;
81351;SDS011;70809;52.184;13.422;2023-08-06T02:58:58;9.75;;;7.53;;
81351;SDS011;70809;52.184;13.422;2023-08-06T03:00:09;11.05;;;7.53;;
81351;SDS011;70809;52.184;13.422;2023-08-06T03:01:11;11.05;;;7.75;;
81351;SDS011;70809;52.184;13.422;2023-08-06T03:02:25;10.20;;;7.32;;
81351;SDS011;70809;52.184;13.422;2023-08-06T03:03:38;9.32;;;7.18;;
81351;SDS011;70809;52.184;13.422;2023-08-06T03:04:41;10.95;;;6.95;;
81351;SDS011;70809;52.184;13.422;2023-08-06T03:05:50;12.40;;;7.80;;
81351;SDS011;70809;52.184;13.422;2023-08-06T03:07:02;10.10;;;7.18;;
81351;SDS011;70809;52.184;13.422;2023-08-06T03:08:12;10.65;;;7.63;;
81351;SDS011;70809;52.184;13.422;2023-08-06T03:09:15;10.60;;;7.57;;
81351;SDS011;70809;52.184;13.422;2023-08-06T03:10:18;8.30;;;6.65;;
81351;SDS011;70809;52.184;13.422;2023-08-06T03:11:19;8.98;;;6.68;;
81351;SDS011;70809;52.184;13.422;2023-08-06T03:12:23;11.30;;;7.65;;
81351;SDS011;70809;52.184;13.422;2023-08-06T03:13:25;10.18;;;7.43;;
81351;SDS011;70809;52.184;13.422;2023-08-06T03:14:27;9.10;;;7.57;;
81351;SDS011;70809;52.184;13.422;2023-08-06T03:15:28;9.93;;;7.72;;
81351;SDS011;70809;52.184;13.422;2023-08-06T03:16:30;9.45;;;7.32;;
81351;SDS011;70809;52.184;13.422;2023-08-06T03:17:33;9.40;;;7.13;;
81351;SDS011;70809;52.184;13.422;2023-08-06T03:18:37;10.75;;;7.55;;
81351;SDS011;70809;52.184;13.422;2023-08-06T03:19:41;8.95;;;6.93;;
81351;SDS011;70809;52.184;13.422;2023-08-06T03:20:44;9.60;;;7.20;;
81351;SDS011;70809;52.184;13.422;2023-08-06T03:21:46;8.13;;;6.78;;
81351;SDS011;70809;52.184;13.422;2023-08-06T03:22:49;10.95;;;7.25;;
81351;SDS011;70809;52.184;13.422;2023-08-06T03:23:51;9.43;;;7.20;;
81351;SDS011;70809;52.184;13.422;2023-08-06T03:24:58;9.90;;;6.93;;
81351;SDS011;70809;52.184;13.422;2023-08-06T03:26:00;9.45;;;6.63;;
81351;SDS011;70809;52.184;13.422;2023-08-06T03:27:04;10.82;;;7.28;;
81351;SDS011;70809;52.184;13.422;2023-08-06T03:28:06;10.15;;;6.70;;
81351;SDS011;70809;52.184;13.422;2023-08-06T03:29:09;10.00;;;7.15;;
81351;SDS011;70809;52.184;13.422;2023-08-06T03:30:11;10.98;;;6.85;;
81351;SDS011;70809;52.184;13.422;2023-08-06T03:31:14;9.57;;;6.72;;
81351;SDS011;70809;52.184;13.422;2023-08-06T03:32:18;11.23;;;7.25;;
81351;SDS011;70809;52.184;13.422;2023-08-06T03:33:20;9.23;;;6.90;;
81351;SDS011;70809;52.184;13.422;2023-08-06T03:34:22;14.65;;;7.63;;
81351;SDS011;70809;52.184;13.422;2023-08-06T03:35:25;12.25;;;7.93;;
81351;SDS011;70809;52.184;13.422;2023-08-06T03:36:27;8.88;;;7.10;;
81351;SDS011;70809;52.184;13.422;2023-08-06T03:37:29;9.93;;;7.20;;
81351;SDS011;70809;52.184;13.422;2023-08-06T03:38:31;9.70;;;7.07;;
81351;SDS011;70809;52.184;13.422;2023-08-06T03:39:34;14.57;;;8.40;;
81351;SDS011;70809;52.184;13.422;2023-08-06T03:40:37;10.50;;;8.32;;
81351;SDS011;70809;52.184;13.422;2023-08-06T03:41:39;12.57;;;8.07;;
81351;SDS011;70809;52.184;13.422;2023-08-06T03:42:41;12.45;;;8.32;;
81351;SDS011;70809;52.184;13.422;2023-08-06T03:43:43;15.00;;;8.85;;
81351;SDS011;70809;52.184;13.422;2023-08-06T03:44:51;11.27;;;8.27;;
81351;SDS011;70809;52.184;13.422;2023-08-06T03:45:53;12.35;;;8.85;;
81351;SDS011;70809;52.184;13.422;2023-08-06T03:46:54;11.30;;;7.22;;
81351;SDS011;70809;52.184;13.422;2023-08-06T03:47:56;12.43;;;8.15;;
81351;SDS011;70809;52.184;13.422;2023-08-06T03:48:58;11.82;;;8.23;;
81351;SDS011;70809;52.184;13.422;2023-08-06T03:50:00;12.15;;;8.32;;
81351;SDS011;70809;52.184;13.422;2023-08-06T03:51:03;11.13;;;8.52;;
81351;SDS011;70809;52.184;13.422;2023-08-06T03:52:04;13.50;;;8.45;;
81351;SDS011;70809;52.184;13.422;2023-08-06T03:53:07;11.82;;;7.63;;
81351;SDS011;70809;52.184;13.422;2023-08-06T03:54:09;12.13;;;8.23;;
81351;SDS011;70809;52.184;13.422;2023-08-06T03:55:10;10.63;;;8.05;;
81351;SDS011;70809;52.184;13.422;2023-08-06T03:56:13;13.18;;;8.90;;
81351;SDS011;70809;52.184;13.422;2023-08-06T03:57:15;14.32;;;9.10;;
81351;SDS011;70809;52.184;13.422;2023-08-06T03:58:17;14.30;;;8.95;;
81351;SDS011;70809;52.184;13.422;2023-08-06T03:59:19;12.20;;;9.07;;
81351;SDS011;70809;52.184;13.422;2023-08-06T04:00:21;11.82;;;8.35;;
81351;SDS011;70809;52.184;13.422;2023-08-06T04:01:26;14.77;;;9.23;;
81351;SDS011;70809;52.184;13.422;2023-08-06T04:02:28;12.35;;;8.80;;
81351;SDS011;70809;52.184;13.422;2023-08-06T04:03:30;13.27;;;8.18;;
81351;SDS011;70809;52.184;13.422;2023-08-06T04:04:31;14.35;;;8.18;;
81351;SDS011;70809;52.184;13.422;2023-08-06T04:05:33;12.77;;;7.68;;
81351;SDS011;70809;52.184;13.422;2023-08-06T04:06:35;11.57;;;8.05;;
81351;SDS011;70809;52.184;13.422;2023-08-06T04:07:37;13.25;;;8.25;;
81351;SDS011;70809;52.184;13.422;2023-08-06T04:08:38;13.75;;;9.25;;
81351;SDS011;70809;52.184;13.422;2023-08-06T04:09:51;11.82;;;8.23;;
81351;SDS011;70809;52.184;13.422;2023-08-06T04:10:54;13.90;;;8.77;;
81351;SDS011;70809;52.184;13.422;2023-08-06T04:11:57;11.93;;;8.35;;
81351;SDS011;70809;52.184;13.422;2023-08-06T04:12:58;14.40;;;8.60;;
81351;SDS011;70809;52.184;13.422;2023-08-06T04:14:00;13.20;;;8.65;;
81351;SDS011;70809;52.184;13.422;2023-08-06T04:15:02;10.60;;;7.35;;
81351;SDS011;70809;52.184;13.422;2023-08-06T04:16:04;10.85;;;8.30;;
81351;SDS011;70809;52.184;13.422;2023-08-06T04:17:07;10.85;;;8.05;;
81351;SDS011;70809;52.184;13.422;2023-08-06T04:18:08;14.05;;;8.75;;
81351;SDS011;70809;52.184;13.422;2023-08-06T04:19:10;11.95;;;7.97;;
81351;SDS011;70809;52.184;13.422;2023-08-06T04:20:13;12.63;;;9.05;;
81351;SDS011;70809;52.184;13.422;2023-08-06T04:21:15;13.48;;;8.50;;
81351;SDS011;70809;52.184;13.422;2023-08-06T04:22:16;13.43;;;8.95;;
81351;SDS011;70809;52.184;13.422;2023-08-06T04:23:19;14.45;;;9.50;;
81351;SDS011;70809;52.184;13.422;2023-08-06T04:24:21;14.18;;;9.65;;
81351;SDS011;70809;52.184;13.422;2023-08-06T04:25:23;14.77;;;9.75;;
81351;SDS011;70809;52.184;13.422;2023-08-06T04:26:25;15.55;;;9.98;;
81351;SDS011;70809;52.184;13.422;2023-08-06T04:27:28;14.27;;;9.73;;
81351;SDS011;70809;52.184;13.422;2023-08-06T04:28:30;16.73;;;10.23;;
81351;SDS011;70809;52.184;13.422;2023-08-06T04:29:32;16.20;;;10.02;;
81351;SDS011;70809;52.184;13.422;2023-08-06T04:30:33;12.35;;;8.50;;
81351;SDS011;70809;52.184;13.422;2023-08-06T04:31:36;13.75;;;9.07;;
81351;SDS011;70809;52.184;13.422;2023-08-06T04:32:38;14.68;;;9.10;;
81351;SDS011;70809;52.184;13.422;2023-08-06T04:33:40;14.27;;;10.25;;
81351;SDS011;70809;52.184;13.422;2023-08-06T04:34:45;12.32;;;8.70;;
81351;SDS011;70809;52.184;13.422;2023-08-06T04:35:47;14.35;;;9.82;;
81351;SDS011;70809;52.184;13.422;2023-08-06T04:36:56;12.43;;;9.00;;
81351;SDS011;70809;52.184;13.422;2023-08-06T04:37:58;13.55;;;9.25;;
81351;SDS011;70809;52.184;13.422;2023-08-06T04:39:01;15.98;;;9.98;;
81351;SDS011;70809;52.184;13.422;2023-08-06T04:40:03;15.77;;;9.45;;
81351;SDS011;70809;52.184;13.422;2023-08-06T04:41:05;13.25;;;9.05;;
81351;SDS011;70809;52.184;13.422;2023-08-06T04:42:07;12.15;;;8.73;;
81351;SDS011;70809;52.184;13.422;2023-08-06T04:43:10;12.07;;;8.63;;
81351;SDS011;70809;52.184;13.422;2023-08-06T04:44:11;12.27;;;8.98;;
81351;SDS011;70809;52.184;13.422;2023-08-06T04:45:13;14.18;;;9.45;;
81351;SDS011;70809;52.184;13.422;2023-08-06T04:46:15;10.60;;;8.65;;
81351;SDS011;70809;52.184;13.422;2023-08-06T04:47:17;12.77;;;8.85;;
81351;SDS011;70809;52.184;13.422;2023-08-06T04:48:19;12.77;;;9.00;;
81351;SDS011;70809;52.184;13.422;2023-08-06T04:49:20;11.48;;;9.15;;
81351;SDS011;70809;52.184;13.422;2023-08-06T04:50:23;15.07;;;9.95;;
81351;SDS011;70809;52.184;13.422;2023-08-06T04:51:25;13.82;;;9.70;;
81351;SDS011;70809;52.184;13.422;2023-08-06T04:52:27;14.73;;;10.38;;
81351;SDS011;70809;52.184;13.422;2023-08-06T04:53:29;11.95;;;9.02;;
81351;SDS011;70809;52.184;13.422;2023-08-06T04:54:31;13.55;;;9.25;;
81351;SDS011;70809;52.184;13.422;2023-08-06T04:55:33;14.68;;;10.20;;
81351;SDS011;70809;52.184;13.422;2023-08-06T04:56:35;12.40;;;8.85;;
81351;SDS011;70809;52.184;13.422;2023-08-06T04:57:36;14.43;;;8.90;;
81351;SDS011;70809;52.184;13.422;2023-08-06T04:58:40;13.38;;;9.55;;
81351;SDS011;70809;52.184;13.422;2023-08-06T04:59:42;13.20;;;8.60;;
81351;SDS011;70809;52.184;13.422;2023-08-06T05:00:44;17.83;;;9.38;;
81351;SDS011;70809;52.184;13.422;2023-08-06T05:01:46;11.52;;;7.95;;
81351;SDS011;70809;52.184;13.422;2023-08-06T05:02:48;13.43;;;9.32;;
81351;SDS011;70809;52.184;13.422;2023-08-06T05:03:50;12.70;;;9.20;;
81351;SDS011;70809;52.184;13.422;2023-08-06T05:04:52;14.77;;;9.70;;
81351;SDS011;70809;52.184;13.422;2023-08-06T05:05:54;14.27;;;9.25;;
81351;SDS011;70809;52.184;13.422;2023-08-06T05:06:56;15.98;;;9.23;;
81351;SDS011;70809;52.184;13.422;2023-08-06T05:07:58;14.05;;;9.23;;
81351;SDS011;70809;52.184;13.422;2023-08-06T05:09:00;13.73;;;9.82;;
81351;SDS011;70809;52.184;13.422;2023-08-06T05:10:02;15.25;;;9.80;;
81351;SDS011;70809;52.184;13.422;2023-08-06T05:11:04;12.05;;;8.60;;
81351;SDS011;70809;52.184;13.422;2023-08-06T05:12:06;11.73;;;8.50;;
81351;SDS011;70809;52.184;13.422;2023-08-06T05:13:08;12.57;;;8.63;;
81351;SDS011;70809;52.184;13.422;2023-08-06T05:14:11;10.38;;;8.32;;
81351;SDS011;70809;52.184;13.422;2023-08-06T05:15:12;11.25;;;8.73;;
81351;SDS011;70809;52.184;13.422;2023-08-06T05:16:14;15.23;;;9.93;;
81351;SDS011;70809;52.184;13.422;2023-08-06T05:17:17;13.95;;;9.32;;
81351;SDS011;70809;52.184;13.422;2023-08-06T05:18:19;11.10;;;8.88;;
81351;SDS011;70809;52.184;13.422;2023-08-06T05:19:21;14.25;;;9.00;;
81351;SDS011;70809;52.184;13.422;2023-08-06T05:20:23;14.20;;;8.77;;
81351;SDS011;70809;52.184;13.422;2023-08-06T05:21:24;12.35;;;8.65;;
81351;SDS011;70809;52.184;13.422;2023-08-06T05:22:26;14.02;;;9.77;;
81351;SDS011;70809;52.184;13.422;2023-08-06T05:23:28;15.45;;;9.52;;
81351;SDS011;70809;52.184;13.422;2023-08-06T05:24:29;12.95;;;9.10;;
81351;SDS011;70809;52.184;13.422;2023-08-06T05:25:31;15.10;;;10.30;;
81351;SDS011;70809;52.184;13.422;2023-08-06T05:26:35;13.77;;;10.02;;
81351;SDS011;70809;52.184;13.422;2023-08-06T05:27:37;13.23;;;9.10;;
81351;SDS011;70809;52.184;13.422;2023-08-06T05:28:39;13.57;;;9.68;;
81351;SDS011;70809;52.184;13.422;2023-08-06T05:29:42;14.57;;;8.32;;
81351;SDS011;70809;52.184;13.422;2023-08-06T05:30:44;13.82;;;8.82;;
81351;SDS011;70809;52.184;13.422;2023-08-06T05:31:46;12.70;;;9.70;;
81351;SDS011;70809;52.184;13.422;2023-08-06T05:32:47;11.10;;;8.75;;
81351;SDS011;70809;52.184;13.422;2023-08-06T05:33:49;15.02;;;9.30;;
81351;SDS011;70809;52.184;13.422;2023-08-06T05:34:51;11.80;;;9.02;;
81351;SDS011;70809;52.184;13.422;2023-08-06T05:35:53;11.55;;;8.85;;
81351;SDS011;70809;52.184;13.422;2023-08-06T05:36:57;11.05;;;8.07;;
81351;SDS011;70809;52.184;13.422;2023-08-06T05:37:59;10.02;;;8.02;;
81351;SDS011;70809;52.184;13.422;2023-08-06T05:39:02;13.57;;;9.48;;
81351;SDS011;70809;52.184;13.422;2023-08-06T05:40:04;12.93;;;8.30;;
81351;SDS011;70809;52.184;13.422;2023-08-06T05:41:07;12.15;;;8.98;;
81351;SDS011;70809;52.184;13.422;2023-08-06T05:42:08;10.73;;;8.18;;
81351;SDS011;70809;52.184;13.422;2023-08-06T05:43:10;15.05;;;9.27;;
81351;SDS011;70809;52.184;13.422;2023-08-06T05:44:12;14.57;;;8.77;;
81351;SDS011;70809;52.184;13.422;2023-08-06T05:45:15;12.75;;;9.02;;
81351;SDS011;70809;52.184;13.422;2023-08-06T05:46:19;12.90;;;8.77;;
81351;SDS011;70809;52.184;13.422;2023-08-06T05:47:21;14.95;;;10.18;;
81351;SDS011;70809;52.184;13.422;2023-08-06T05:48:23;12.45;;;9.48;;
81351;SDS011;70809;52.184;13.422;2023-08-06T05:49:25;10.60;;;9.00;;
81351;SDS011;70809;52.184;13.422;2023-08-06T05:50:26;12.35;;;8.43;;
81351;SDS011;70809;52.184;13.422;2023-08-06T05:51:28;11.85;;;9.07;;
81351;SDS011;70809;52.184;13.422;2023-08-06T05:52:30;13.40;;;9.27;;
81351;SDS011;70809;52.184;13.422;2023-08-06T05:53:32;10.60;;;8.23;;
81351;SDS011;70809;52.184;13.422;2023-08-06T05:54:33;13.07;;;8.57;;
81351;SDS011;70809;52.184;13.422;2023-08-06T05:55:35;12.55;;;9.57;;
81351;SDS011;70809;52.184;13.422;2023-08-06T05:56:37;13.40;;;9.40;;
81351;SDS011;70809;52.184;13.422;2023-08-06T05:57:39;12.73;;;8.65;;
81351;SDS011;70809;52.184;13.422;2023-08-06T05:58:41;9.60;;;8.25;;
81351;SDS011;70809;52.184;13.422;2023-08-06T05:59:42;15.05;;;9.48;;
81351;SDS011;70809;52.184;13.422;2023-08-06T06:00:46;12.23;;;8.60;;
81351;SDS011;70809;52.184;13.422;2023-08-06T06:01:48;13.98;;;9.25;;
81351;SDS011;70809;52.184;13.422;2023-08-06T06:02:50;12.50;;;8.77;;
81351;SDS011;70809;52.184;13.422;2023-08-06T06:03:52;11.15;;;8.57;;
81351;SDS011;70809;52.184;13.422;2023-08-06T06:04:53;10.48;;;8.25;;
81351;SDS011;70809;52.184;13.422;2023-08-06T06:05:55;12.38;;;9.07;;
81351;SDS011;70809;52.184;13.422;2023-08-06T06:06:57;12.15;;;8.85;;
81351;SDS011;70809;52.184;13.422;2023-08-06T06:07:59;13.07;;;9.32;;